首页
METAR-TAF:

METAR-TAF

机场 :

Portage la Prairie, 曼尼托巴, 加拿大

纬度: 49-54N, 经度: 098-16W, 海拔: 269米

METAR: 丢失

时间: 17:44 (22:44 UTC)

预报

该预报发布于29小时和4分钟前的17:40 UTC
预报有效从24日的 18点(UTC)到 25日的 06点(UTC)
风速20节,风向南转西南,有时为30节阵风
能見度: 10公里
少量云层高于4000英尺
多云层高于28000英尺
成为
从 24日的 18点(UTC)到 24日的 20点(UTC)
风速15节,风向西南,有时为25节阵风
成为
从 24日的 20点(UTC)到 24日的 22点(UTC)
风速18节,风向西,有时为28节阵风
从 24日的 2200点(UTC)
风速18节,风向西,有时为28节阵风
能見度: 10公里
散云层高于6000英尺
成为
从 25日的 02点(UTC)到 25日的 04点(UTC)
风速10节,风向西转西南

TAF: CYPG 241740Z 2418/2506 20020G30KT P6SM FEW040 BKN280 BECMG 2418/2420 23015G25KT BECMG 2420/2422 28018G28KT FM242200 28018G28KT P6SM SCT060 BECMG 2502/2504 25010KT RMK NXT FCST BY 250000Z

超过4000个机场的气象观测和天气预报(METAR&TAF报告)。

可查询的气象台以黄色和红色小点在地图上表示。

将鼠标移到小点上方,可查看气象台名称。

然后点击查看天气观测和预报。

如需切换地图:点击带黑十字的绿色按钮放大地图;点击带横线的绿色按钮缩小地图;或者点击绿色箭头查看邻近地区的地图。


METAR-TAF: